Time;durP1;ratioP1;P1;durP2;ratioP2;P2;SDS_P1;SDS_P2;PMS_P1;PMS_P2;Temp;Humidity;BMP_temperature;BMP_pressure;BME280_temperature;BME280_humidity;BME280_pressure;Samples;Min_cycle;Max_cycle;Signal;HPM_P1;HPM_P2
2021/04/20 00:01:49;;;;;;;10.30;7.85;;;8.40;99.90;;;;;;5010585;28;20789;-82
2021/04/20 00:04:15;;;;;;;11.57;8.60;;;8.40;99.90;;;;;;5008657;28;20038;-82
2021/04/20 00:06:40;;;;;;;11.52;8.77;;;7.90;99.90;;;;;;5006246;28;20088;-82
2021/04/20 00:09:09;;;;;;;10.82;8.48;;;8.10;99.90;;;;;;5009509;28;20023;-81
2021/04/20 00:11:39;;;;;;;11.38;8.98;;;8.20;99.90;;;;;;5011944;28;20038;-82
2021/04/20 00:14:10;;;;;;;15.85;8.98;;;8.20;99.90;;;;;;4999446;28;20018;-82
2021/04/20 00:16:36;;;;;;;12.00;9.25;;;8.00;99.90;;;;;;5041071;28;20069;-81
2021/04/20 00:19:05;;;;;;;12.38;9.27;;;8.10;99.90;;;;;;5008134;28;20029;-82
2021/04/20 00:21:31;;;;;;;12.38;9.23;;;8.20;99.90;;;;;;5008915;28;20550;-82
2021/04/20 00:23:56;;;;;;;11.90;9.02;;;8.20;99.90;;;;;;5009601;28;20101;-82
2021/04/20 00:26:22;;;;;;;12.30;8.95;;;8.10;99.90;;;;;;5010971;28;20104;-81
2021/04/20 00:28:48;;;;;;;12.30;9.45;;;8.00;99.90;;;;;;5009281;28;20029;-82
2021/04/20 00:31:13;;;;;;;13.02;9.35;;;8.00;99.90;;;;;;5003480;28;20030;-82
2021/04/20 00:33:41;;;;;;;13.15;9.38;;;7.80;99.90;;;;;;5000172;28;20110;-82
2021/04/20 00:36:08;;;;;;;14.50;9.50;;;7.70;99.90;;;;;;5009074;28;20542;-82
2021/04/20 00:38:34;;;;;;;12.75;9.20;;;7.70;99.90;;;;;;5011371;28;20505;-82
2021/04/20 00:41:08;;;;;;;12.90;9.35;;;7.70;99.90;;;;;;5009682;28;20029;-82
2021/04/20 00:43:42;;;;;;;11.65;9.38;;;7.80;99.90;;;;;;4999992;28;20113;-82
2021/04/20 00:46:21;;;;;;;12.25;8.82;;;7.80;99.90;;;;;;4999350;28;20057;-82
2021/04/20 00:48:47;;;;;;;11.15;9.27;;;7.80;99.90;;;;;;5003692;28;20545;-82
2021/04/20 00:51:14;;;;;;;11.80;9.30;;;7.60;99.90;;;;;;5010602;28;20065;-81
2021/04/20 00:53:40;;;;;;;14.00;9.82;;;7.70;99.90;;;;;;4996177;28;20046;-81
2021/04/20 00:56:06;;;;;;;10.25;8.85;;;7.70;99.90;;;;;;5009796;28;20029;-82
2021/04/20 00:58:32;;;;;;;12.90;9.48;;;7.60;99.90;;;;;;5007038;28;20017;-82
2021/04/20 01:00:58;;;;;;;10.13;8.38;;;7.70;99.90;;;;;;5006625;28;20034;-82
2021/04/20 01:03:25;;;;;;;10.98;8.82;;;7.60;99.90;;;;;;5039652;28;20550;-82
2021/04/20 01:05:51;;;;;;;12.73;9.27;;;7.40;99.90;;;;;;4996046;28;20039;-82
2021/04/20 01:08:19;;;;;;;11.18;9.30;;;7.30;99.90;;;;;;4996875;28;20018;-82
2021/04/20 01:11:03;;;;;;;11.00;9.00;;;7.30;99.90;;;;;;5008360;28;20065;-82
2021/04/20 01:13:31;;;;;;;14.07;9.27;;;7.20;99.90;;;;;;5007198;28;20030;-81
2021/04/20 01:15:56;;;;;;;11.73;9.63;;;7.30;99.90;;;;;;5006940;28;20033;-81
2021/04/20 01:18:35;;;;;;;12.32;9.25;;;7.40;99.90;;;;;;5011584;28;20038;-80
2021/04/20 01:21:07;;;;;;;12.25;10.10;;;7.20;99.90;;;;;;4997455;28;20053;-82
2021/04/20 01:23:45;;;;;;;12.60;9.90;;;7.20;99.90;;;;;;4995003;28;20038;-82
2021/04/20 01:26:11;;;;;;;11.50;9.30;;;7.20;99.90;;;;;;5021659;28;20068;-80
2021/04/20 01:28:37;;;;;;;12.95;9.63;;;7.20;99.90;;;;;;4998899;28;20033;-81
2021/04/20 01:31:03;;;;;;;12.15;9.52;;;7.10;99.90;;;;;;4998428;28;20700;-82
2021/04/20 01:33:29;;;;;;;10.82;8.95;;;7.00;99.90;;;;;;4997698;28;20109;-81
2021/04/20 01:35:54;;;;;;;13.38;9.68;;;7.00;99.90;;;;;;4996145;28;20030;-81
2021/04/20 01:38:20;;;;;;;13.50;9.50;;;7.00;99.90;;;;;;4996017;28;20023;-82
2021/04/20 01:40:46;;;;;;;11.82;9.55;;;6.60;99.90;;;;;;4998328;28;20026;-82
2021/04/20 01:43:13;;;;;;;13.05;9.63;;;6.80;99.90;;;;;;4998113;28;20151;-82
2021/04/20 01:45:43;;;;;;;13.23;9.82;;;6.50;99.90;;;;;;4998753;28;20053;-81
2021/04/20 01:48:10;;;;;;;11.52;9.73;;;6.50;99.90;;;;;;5012652;28;20025;-82
2021/04/20 01:50:40;;;;;;;12.57;9.45;;;6.70;99.90;;;;;;4995008;28;20029;-82
2021/04/20 01:53:06;;;;;;;14.82;9.60;;;6.80;99.90;;;;;;4997039;28;20030;-82
2021/04/20 01:55:32;;;;;;;12.00;9.82;;;7.40;99.90;;;;;;4998599;28;20076;-82
2021/04/20 01:57:58;;;;;;;11.75;9.73;;;6.80;99.90;;;;;;4998268;28;20065;-82
2021/04/20 02:00:25;;;;;;;12.32;9.88;;;6.80;99.90;;;;;;4998060;28;20101;-82
2021/04/20 02:02:50;;;;;;;13.23;10.02;;;6.70;99.90;;;;;;5012946;28;20374;-83
2021/04/20 02:05:16;;;;;;;12.20;9.95;;;6.80;99.90;;;;;;5009046;28;20052;-83
2021/04/20 02:07:43;;;;;;;13.50;9.60;;;6.60;99.90;;;;;;5006783;28;20034;-82
2021/04/20 02:10:12;;;;;;;13.70;9.98;;;6.60;99.90;;;;;;5002096;28;20038;-83
2021/04/20 02:12:39;;;;;;;12.23;9.88;;;6.70;99.90;;;;;;4998035;28;20042;-82
2021/04/20 02:15:07;;;;;;;12.90;10.65;;;6.70;99.90;;;;;;4997274;28;20076;-83
2021/04/20 02:17:33;;;;;;;12.32;10.07;;;6.80;99.90;;;;;;5018788;28;20042;-83
2021/04/20 02:20:06;;;;;;;12.02;10.00;;;6.90;99.90;;;;;;5007992;28;20057;-82
2021/04/20 02:22:50;;;;;;;13.50;10.68;;;6.90;99.90;;;;;;5005269;28;20049;-82
2021/04/20 02:25:18;;;;;;;12.30;10.23;;;6.80;99.90;;;;;;5006001;28;20061;-82
2021/04/20 02:27:48;;;;;;;11.55;9.65;;;6.60;99.90;;;;;;5005289;28;20026;-82
2021/04/20 02:30:14;;;;;;;13.52;10.18;;;6.60;99.90;;;;;;4996791;28;20080;-82
2021/04/20 02:32:40;;;;;;;13.25;10.15;;;6.60;99.90;;;;;;5023101;28;20498;-82
2021/04/20 02:35:10;;;;;;;13.05;10.38;;;6.40;99.90;;;;;;5007031;28;20042;-83
2021/04/20 02:37:38;;;;;;;12.30;9.90;;;6.40;99.90;;;;;;5006133;28;20069;-82
2021/04/20 02:40:19;;;;;;;13.80;10.38;;;6.40;99.90;;;;;;5002399;28;20547;-83
2021/04/20 02:42:47;;;;;;;13.40;10.65;;;6.40;99.90;;;;;;4997091;28;20030;-82
2021/04/20 02:45:12;;;;;;;15.38;10.73;;;6.30;99.90;;;;;;4999713;28;20041;-82
2021/04/20 02:47:38;;;;;;;13.43;10.07;;;6.40;99.90;;;;;;5010696;28;20030;-82
2021/04/20 02:50:10;;;;;;;15.38;10.40;;;6.30;99.90;;;;;;5007348;28;20065;-82
2021/04/20 02:52:36;;;;;;;16.40;10.98;;;6.20;99.90;;;;;;5005073;28;20075;-82
2021/04/20 02:55:05;;;;;;;15.00;11.38;;;6.30;99.90;;;;;;5005438;28;20041;-82
2021/04/20 02:57:34;;;;;;;14.68;10.77;;;6.20;99.90;;;;;;5005713;28;20113;-81
2021/04/20 02:59:59;;;;;;;14.52;10.60;;;6.00;99.90;;;;;;5010246;28;20029;-82
2021/04/20 03:02:26;;;;;;;13.07;10.52;;;6.10;99.90;;;;;;4994904;28;20493;-82
2021/04/20 03:04:52;;;;;;;13.48;10.93;;;6.10;99.90;;;;;;4995910;28;20057;-80
2021/04/20 03:07:18;;;;;;;12.32;10.55;;;6.00;99.90;;;;;;4997313;28;20026;-81
2021/04/20 03:09:44;;;;;;;12.75;10.43;;;6.00;99.90;;;;;;4997203;28;20030;-82
2021/04/20 03:12:10;;;;;;;13.65;11.40;;;6.00;99.90;;;;;;4996408;28;20026;-82
2021/04/20 03:14:37;;;;;;;13.70;10.82;;;5.90;99.90;;;;;;4994101;28;20030;-82
2021/04/20 03:17:03;;;;;;;14.88;11.10;;;5.90;99.90;;;;;;5008137;28;20034;-81
2021/04/20 03:19:29;;;;;;;15.75;11.63;;;5.90;99.90;;;;;;4997875;28;20025;-82
2021/04/20 03:21:55;;;;;;;15.45;11.80;;;5.90;99.90;;;;;;4996891;28;20047;-82
2021/04/20 03:24:50;;;;;;;15.57;11.93;;;5.80;99.90;;;;;;4997516;28;20037;-81
2021/04/20 03:27:16;;;;;;;13.55;11.50;;;5.90;99.90;;;;;;5000792;28;20088;-82
2021/04/20 03:29:41;;;;;;;15.10;11.25;;;5.90;99.90;;;;;;5008498;28;20022;-82
2021/04/20 03:32:07;;;;;;;13.60;10.80;;;5.90;99.90;;;;;;5010063;28;20030;-82
2021/04/20 03:34:37;;;;;;;15.15;11.20;;;6.00;99.90;;;;;;5009010;28;20056;-82
2021/04/20 03:37:17;;;;;;;15.82;11.40;;;6.00;99.90;;;;;;5008925;28;20049;-81
2021/04/20 03:39:46;;;;;;;17.52;11.77;;;6.00;99.90;;;;;;5008780;28;20029;-82
2021/04/20 03:42:21;;;;;;;13.73;10.85;;;6.10;99.90;;;;;;5009750;28;20018;-83
2021/04/20 03:45:10;;;;;;;14.50;11.32;;;6.10;99.90;;;;;;5012540;28;20110;-82
2021/04/20 03:47:47;;;;;;;17.13;11.40;;;6.20;99.90;;;;;;4996683;28;20117;-82
2021/04/20 03:50:17;;;;;;;15.07;10.88;;;6.10;99.90;;;;;;5011431;28;20022;-83
2021/04/20 03:52:48;;;;;;;14.68;11.38;;;6.10;99.90;;;;;;5001139;28;20038;-82
2021/04/20 03:55:16;;;;;;;13.02;10.82;;;6.00;99.90;;;;;;5000469;28;20025;-82
2021/04/20 03:57:45;;;;;;;14.07;11.38;;;6.00;99.90;;;;;;5000554;28;20043;-82
2021/04/20 04:00:14;;;;;;;14.40;11.88;;;6.00;99.90;;;;;;5016733;28;20077;-81
2021/04/20 04:02:43;;;;;;;16.90;12.65;;;6.00;99.90;;;;;;5012369;28;20030;-82
2021/04/20 04:05:14;;;;;;;15.13;11.18;;;6.00;99.90;;;;;;5010329;28;20038;-81
2021/04/20 04:07:40;;;;;;;16.45;11.93;;;6.00;99.90;;;;;;5009630;28;20072;-82
2021/04/20 04:10:07;;;;;;;16.20;11.85;;;6.10;99.90;;;;;;5008157;28;20514;-82
2021/04/20 04:12:39;;;;;;;14.38;11.35;;;6.20;99.90;;;;;;5009339;28;20085;-82
2021/04/20 04:15:08;;;;;;;16.40;12.18;;;5.80;99.90;;;;;;5022907;28;20026;-81
2021/04/20 04:17:36;;;;;;;14.75;11.60;;;5.80;99.90;;;;;;5010977;28;20077;-82
2021/04/20 04:20:05;;;;;;;13.82;11.13;;;5.50;99.90;;;;;;5010567;28;20026;-81
2021/04/20 04:22:37;;;;;;;14.75;11.95;;;5.60;99.90;;;;;;5007883;28;20518;-82
2021/04/20 04:25:06;;;;;;;14.02;11.30;;;5.60;99.90;;;;;;5004907;28;20061;-82
2021/04/20 04:27:39;;;;;;;16.20;11.80;;;5.50;99.90;;;;;;5001686;28;20047;-82
2021/04/20 04:30:09;;;;;;;15.02;11.10;;;5.60;99.90;;;;;;5009382;28;20040;-82
2021/04/20 04:32:42;;;;;;;14.55;11.55;;;5.60;99.90;;;;;;5011250;28;20469;-82
2021/04/20 04:35:10;;;;;;;15.57;11.88;;;5.50;99.90;;;;;;5010206;28;20467;-82
2021/04/20 04:37:37;;;;;;;16.08;11.90;;;5.50;99.90;;;;;;4998791;28;20097;-81
2021/04/20 04:40:05;;;;;;;15.43;12.30;;;5.50;99.90;;;;;;4999943;28;20038;-82
2021/04/20 04:42:32;;;;;;;15.35;12.38;;;5.50;99.90;;;;;;5004434;28;20025;-82
2021/04/20 04:45:02;;;;;;;15.30;12.77;;;5.60;99.90;;;;;;5010792;28;20031;-82
2021/04/20 04:47:28;;;;;;;19.90;13.18;;;5.30;99.90;;;;;;4997196;28;20030;-81
2021/04/20 04:49:59;;;;;;;14.38;11.95;;;5.30;99.90;;;;;;4998640;28;20042;-82
2021/04/20 04:52:26;;;;;;;14.43;12.13;;;5.30;99.90;;;;;;4999394;28;20026;-82
2021/04/20 04:54:51;;;;;;;15.82;12.27;;;5.30;99.90;;;;;;4999676;28;20030;-81
2021/04/20 04:57:19;;;;;;;25.25;14.25;;;5.20;99.90;;;;;;4997939;28;20104;-81
2021/04/20 04:59:47;;;;;;;18.52;13.18;;;5.30;99.90;;;;;;5013670;28;20022;-82
2021/04/20 05:02:13;;;;;;;20.02;13.20;;;5.30;99.90;;;;;;5010067;28;20509;-82
2021/04/20 05:04:38;;;;;;;22.98;13.98;;;5.40;99.90;;;;;;4999302;28;20720;-80
2021/04/20 05:07:04;;;;;;;18.63;14.07;;;5.40;99.90;;;;;;4999162;28;20023;-81
2021/04/20 05:09:30;;;;;;;16.40;12.95;;;5.50;99.90;;;;;;4999502;28;20062;-82
2021/04/20 05:11:55;;;;;;;18.05;12.38;;;5.40;99.90;;;;;;5001619;28;20038;-82
2021/04/20 05:14:22;;;;;;;17.10;13.63;;;5.40;99.90;;;;;;5009612;28;20467;-82
2021/04/20 05:16:51;;;;;;;18.58;13.55;;;5.40;99.90;;;;;;4998774;28;20022;-82
2021/04/20 05:19:28;;;;;;;17.42;13.48;;;5.30;99.90;;;;;;4999314;28;20068;-80
2021/04/20 05:21:55;;;;;;;17.40;13.27;;;5.20;99.90;;;;;;4998337;28;20038;-82
2021/04/20 05:24:21;;;;;;;16.73;12.60;;;5.20;99.90;;;;;;5019365;28;20157;-82
2021/04/20 05:26:47;;;;;;;18.33;13.35;;;5.40;99.90;;;;;;4994749;28;20038;-91
2021/04/20 05:29:13;;;;;;;19.58;15.23;;;5.30;99.90;;;;;;5008932;28;20073;-81
2021/04/20 05:31:39;;;;;;;17.40;14.00;;;5.40;99.90;;;;;;5006045;28;20038;-81
2021/04/20 05:34:06;;;;;;;17.63;13.80;;;5.30;99.90;;;;;;5006538;28;20068;-80
2021/04/20 05:36:34;;;;;;;20.45;13.95;;;5.50;99.90;;;;;;5006408;28;20026;-80
2021/04/20 05:39:04;;;;;;;21.42;13.82;;;5.50;99.90;;;;;;5020135;28;20056;-80
2021/04/20 05:41:31;;;;;;;22.20;13.82;;;5.70;99.90;;;;;;5010334;28;20550;-81
2021/04/20 05:43:59;;;;;;;18.60;12.88;;;5.80;99.90;;;;;;4997534;28;20149;-80
2021/04/20 05:46:25;;;;;;;18.65;12.80;;;5.90;99.90;;;;;;4998470;28;20041;-80
2021/04/20 05:48:52;;;;;;;16.00;12.18;;;5.90;99.90;;;;;;4997940;28;20109;-81
2021/04/20 05:51:20;;;;;;;22.73;13.05;;;6.00;99.90;;;;;;4998591;28;20032;-82
2021/04/20 05:53:47;;;;;;;19.30;12.90;;;6.10;99.90;;;;;;5016277;28;20033;-81
2021/04/20 05:56:17;;;;;;;21.50;13.48;;;6.00;99.90;;;;;;4997490;28;20426;-81
2021/04/20 05:58:44;;;;;;;18.85;13.65;;;5.70;99.90;;;;;;4997683;28;20117;-81
2021/04/20 06:01:10;;;;;;;20.70;14.38;;;5.70;99.90;;;;;;5005494;28;20033;-81
2021/04/20 06:03:39;;;;;;;21.52;13.27;;;5.70;99.90;;;;;;5005839;28;20042;-81
2021/04/20 06:06:06;;;;;;;15.45;12.88;;;5.80;99.90;;;;;;4996520;28;20121;-81
2021/04/20 06:08:34;;;;;;;16.98;13.40;;;5.60;99.90;;;;;;5020111;28;20067;-81
2021/04/20 06:11:02;;;;;;;17.85;13.85;;;5.70;99.90;;;;;;4998205;28;20034;-81
2021/04/20 06:13:28;;;;;;;16.88;13.65;;;5.90;99.90;;;;;;4997586;28;20038;-83
2021/04/20 06:15:54;;;;;;;20.50;13.75;;;5.90;99.90;;;;;;4997802;28;20022;-81
2021/04/20 06:18:20;;;;;;;19.77;14.13;;;6.20;99.90;;;;;;4997959;28;20021;-81
2021/04/20 06:20:47;;;;;;;19.92;14.25;;;6.50;99.90;;;;;;4998131;28;20550;-82
2021/04/20 06:23:14;;;;;;;20.38;14.00;;;6.70;99.90;;;;;;5056193;28;20436;-81
2021/04/20 06:25:40;;;;;;;18.20;13.77;;;7.30;99.90;;;;;;5025746;28;20034;-81
2021/04/20 06:28:08;;;;;;;22.65;14.50;;;6.90;99.90;;;;;;5006973;28;20041;-82
2021/04/20 06:30:34;;;;;;;17.23;13.52;;;6.90;99.90;;;;;;5026971;28;20041;-88
2021/04/20 06:33:00;;;;;;;19.40;14.43;;;6.90;99.90;;;;;;5036150;28;20085;-80
2021/04/20 06:35:27;;;;;;;18.92;14.43;;;7.10;99.90;;;;;;5015130;28;20606;-80
2021/04/20 06:37:54;;;;;;;19.05;14.18;;;7.30;99.90;;;;;;5029336;28;20025;-81
2021/04/20 06:40:27;;;;;;;21.27;14.23;;;7.50;99.90;;;;;;5019696;28;20116;-79
2021/04/20 06:43:02;;;;;;;19.73;14.82;;;7.50;99.90;;;;;;5016446;28;20370;-80
2021/04/20 06:45:43;;;;;;;20.73;14.88;;;7.60;99.90;;;;;;5017498;28;20037;-80
2021/04/20 06:48:49;;;;;;;19.83;14.90;;;7.70;99.90;;;;;;5016225;28;20033;-80
2021/04/20 06:51:17;;;;;;;18.50;14.80;;;7.80;99.90;;;;;;5019095;28;20041;-81
2021/04/20 06:53:58;;;;;;;19.42;14.50;;;7.90;99.90;;;;;;5013992;28;20113;-80
2021/04/20 06:56:38;;;;;;;19.98;14.23;;;8.40;99.90;;;;;;5027314;28;20029;-81
2021/04/20 06:59:18;;;;;;;19.75;14.48;;;8.20;99.90;;;;;;5015689;28;20037;-81
2021/04/20 07:01:52;;;;;;;22.27;14.98;;;8.90;99.90;;;;;;5025111;28;20025;-81
2021/04/20 07:04:37;;;;;;;19.08;14.93;;;8.40;99.90;;;;;;5027901;28;20040;-82
2021/04/20 07:07:20;;;;;;;19.90;15.00;;;8.50;99.90;;;;;;5024937;28;20029;-82
2021/04/20 07:09:53;;;;;;;20.02;15.05;;;8.90;99.90;;;;;;5024681;28;20025;-82
2021/04/20 07:12:21;;;;;;;21.50;15.88;;;8.70;99.90;;;;;;5027295;28;20037;-82
2021/04/20 07:14:54;;;;;;;19.95;15.35;;;8.60;99.90;;;;;;5012697;28;20044;-82
2021/04/20 07:18:03;;;;;;;22.77;16.35;;;8.80;99.90;;;;;;5032264;28;20393;-82
2021/04/20 07:21:07;;;;;;;21.50;16.25;;;9.00;99.90;;;;;;5027630;28;20625;-86
2021/04/20 07:23:55;;;;;;;20.75;16.38;;;9.10;99.90;;;;;;5027966;28;20041;-81
2021/04/20 07:26:36;;;;;;;21.65;16.38;;;9.30;99.90;;;;;;5026858;28;20056;-83
2021/04/20 07:29:32;;;;;;;21.23;16.42;;;9.30;99.90;;;;;;5015788;28;20483;-82
2021/04/20 07:32:06;;;;;;;19.75;15.90;;;9.40;99.90;;;;;;5032828;28;20037;-83
2021/04/20 07:34:55;;;;;;;20.20;15.48;;;9.50;99.90;;;;;;5019513;28;20401;-83
2021/04/20 07:37:37;;;;;;;20.65;16.23;;;9.60;99.90;;;;;;5020945;28;20037;-83
2021/04/20 07:40:25;;;;;;;19.60;16.33;;;9.80;99.90;;;;;;5019521;28;20026;-83
2021/04/20 07:42:58;;;;;;;18.77;15.57;;;9.90;99.90;;;;;;5022834;28;20014;-83
2021/04/20 07:46:04;;;;;;;23.55;16.50;;;10.00;99.90;;;;;;5016680;28;20099;-83
2021/04/20 07:48:36;;;;;;;19.58;15.90;;;10.00;99.90;;;;;;5015204;28;20033;-83
2021/04/20 07:51:20;;;;;;;25.40;17.95;;;10.10;99.90;;;;;;5039190;28;20035;-83
2021/04/20 07:54:01;;;;;;;23.60;16.27;;;10.20;99.90;;;;;;5014636;28;20035;-82
2021/04/20 07:57:02;;;;;;;18.10;15.23;;;10.30;99.90;;;;;;5031318;28;20049;-83
2021/04/20 07:59:53;;;;;;;22.88;17.85;;;10.50;99.90;;;;;;5006792;28;20081;-82
2021/04/20 08:02:39;;;;;;;19.80;16.02;;;10.60;99.90;;;;;;5034059;28;20124;-82
2021/04/20 08:05:23;;;;;;;20.85;16.92;;;10.60;99.90;;;;;;5026677;28;20028;-82
2021/04/20 08:07:54;;;;;;;20.92;16.15;;;10.70;99.90;;;;;;5025776;28;20033;-81
2021/04/20 08:10:28;;;;;;;22.83;16.65;;;10.90;99.90;;;;;;5024275;28;20037;-82
2021/04/20 08:13:35;;;;;;;20.70;17.00;;;11.50;99.90;;;;;;5027834;28;20060;-82
2021/04/20 08:16:11;;;;;;;19.98;15.88;;;11.00;99.90;;;;;;5023116;28;20312;-82
2021/04/20 08:18:57;;;;;;;19.75;15.02;;;11.10;99.90;;;;;;5036896;28;20030;-83
2021/04/20 08:21:24;;;;;;;20.25;15.88;;;11.40;99.90;;;;;;5018944;28;20037;-83
2021/04/20 08:23:53;;;;;;;22.88;16.48;;;11.40;99.90;;;;;;5015551;28;20033;-82
2021/04/20 08:26:27;;;;;;;19.70;15.65;;;11.60;99.90;;;;;;5017564;28;20080;-82
2021/04/20 08:29:09;;;;;;;19.38;16.45;;;11.50;99.90;;;;;;5018668;28;20033;-82
2021/04/20 08:31:45;;;;;;;20.98;16.77;;;11.60;99.90;;;;;;5038133;28;20051;-83
2021/04/20 08:34:43;;;;;;;19.48;15.65;;;11.90;99.90;;;;;;5036621;28;20029;-83
2021/04/20 08:37:11;;;;;;;17.88;15.07;;;11.70;99.90;;;;;;5031032;28;20088;-84
2021/04/20 08:40:08;;;;;;;17.40;14.85;;;12.20;99.90;;;;;;5027164;28;20064;-84
2021/04/20 08:42:44;;;;;;;19.50;15.05;;;12.10;99.90;;;;;;5020114;28;20088;-84
2021/04/20 08:45:37;;;;;;;18.15;13.85;;;12.30;99.90;;;;;;5027903;28;20132;-84
2021/04/20 08:48:20;;;;;;;20.08;15.52;;;12.50;99.90;;;;;;5046259;28;20117;-81
2021/04/20 08:51:00;;;;;;;13.73;11.57;;;12.50;99.90;;;;;;5016875;28;20077;-89
2021/04/20 08:53:36;;;;;;;12.15;10.82;;;12.50;99.90;;;;;;5029474;28;20052;-84
2021/04/20 08:56:25;;;;;;;14.25;11.55;;;12.60;99.90;;;;;;5018186;28;20014;-84
2021/04/20 08:59:24;;;;;;;13.70;10.95;;;12.90;99.90;;;;;;5028404;28;20033;-84
2021/04/20 09:02:27;;;;;;;17.13;12.38;;;12.90;99.90;;;;;;5029114;28;20714;-84
2021/04/20 09:05:19;;;;;;;15.02;11.73;;;12.90;99.90;;;;;;5017869;28;20041;-88
2021/04/20 09:07:44;;;;;;;16.00;12.77;;;12.90;99.90;;;;;;5018350;28;20065;-84
2021/04/20 09:10:30;;;;;;;15.10;12.65;;;13.30;99.90;;;;;;5017806;28;20056;-85
2021/04/20 09:13:11;;;;;;;15.48;13.05;;;13.30;99.90;;;;;;5025456;28;20505;-83
2021/04/20 09:15:41;;;;;;;15.90;12.98;;;13.00;99.90;;;;;;5029387;28;20515;-83
2021/04/20 09:18:12;;;;;;;14.25;12.32;;;13.10;99.90;;;;;;5029908;28;20025;-83
2021/04/20 09:20:44;;;;;;;16.67;12.50;;;13.30;99.90;;;;;;5013919;28;20120;-83
2021/04/20 09:23:42;;;;;;;13.98;11.55;;;13.40;99.90;;;;;;5027518;28;20037;-84
2021/04/20 09:26:38;;;;;;;12.88;11.52;;;13.50;99.90;;;;;;5017773;28;20124;-83
2021/04/20 09:29:17;;;;;;;14.27;11.80;;;13.50;99.90;;;;;;5028458;28;20029;-84
2021/04/20 09:31:52;;;;;;;17.10;11.70;;;13.60;99.90;;;;;;5030720;28;20022;-84
2021/04/20 09:34:19;;;;;;;15.15;11.82;;;13.80;99.90;;;;;;5026000;28;20065;-84
2021/04/20 09:36:46;;;;;;;16.92;12.07;;;14.00;99.90;;;;;;5024600;28;20026;-84
2021/04/20 09:39:13;;;;;;;13.90;11.38;;;14.10;99.90;;;;;;5018272;28;20060;-83
2021/04/20 09:41:46;;;;;;;15.70;12.32;;;14.20;99.90;;;;;;5014135;28;20030;-83
2021/04/20 09:44:16;;;;;;;13.88;11.25;;;14.80;99.90;;;;;;5028764;28;20029;-84
2021/04/20 09:46:48;;;;;;;14.10;11.88;;;14.50;99.90;;;;;;5018510;28;20034;-84
2021/04/20 09:49:17;;;;;;;15.30;11.15;;;14.80;99.90;;;;;;5017819;28;20040;-82
2021/04/20 09:51:50;;;;;;;14.48;10.70;;;14.40;99.90;;;;;;5017111;28;20109;-82
2021/04/20 09:54:20;;;;;;;10.65;9.55;;;15.10;99.90;;;;;;5017379;28;20033;-82
2021/04/20 09:56:52;;;;;;;12.73;9.95;;;14.90;99.90;;;;;;5013698;28;20037;-82
2021/04/20 09:59:23;;;;;;;11.23;9.90;;;15.20;99.90;;;;;;5013656;28;20026;-81
2021/04/20 10:01:51;;;;;;;11.18;9.15;;;14.70;99.90;;;;;;5019087;28;20052;-82
2021/04/20 10:04:42;;;;;;;11.77;9.43;;;15.00;99.90;;;;;;5017039;28;20543;-83
2021/04/20 10:07:50;;;;;;;12.43;9.13;;;15.20;99.90;;;;;;5017410;28;20038;-82
2021/04/20 10:10:47;;;;;;;9.63;8.25;;;15.40;99.90;;;;;;5009426;28;20040;-80
2021/04/20 10:13:49;;;;;;;10.23;9.10;;;15.30;99.90;;;;;;5017391;28;20394;-80
2021/04/20 10:16:36;;;;;;;10.55;8.52;;;15.30;99.90;;;;;;5018730;28;20038;-80
2021/04/20 10:19:32;;;;;;;10.05;8.07;;;15.70;99.90;;;;;;5016800;28;20022;-79
2021/04/20 10:22:19;;;;;;;9.07;6.95;;;16.10;99.90;;;;;;5016907;28;20510;-80
2021/04/20 10:25:12;;;;;;;8.52;7.63;;;16.10;99.90;;;;;;5017300;28;20537;-86
2021/04/20 10:27:41;;;;;;;10.90;8.40;;;16.50;99.90;;;;;;5022938;28;20393;-85
2021/04/20 10:30:19;;;;;;;10.43;8.07;;;18.80;99.90;;;;;;5027301;28;20030;-88
2021/04/20 10:32:53;;;;;;;9.43;8.20;;;23.20;99.90;;;;;;5007903;28;20065;-86
2021/04/20 10:35:23;;;;;;;11.85;7.78;;;26.50;99.90;;;;;;5032107;28;20101;-86
2021/04/20 10:37:56;;;;;;;10.23;8.40;;;28.70;99.90;;;;;;5010826;28;20045;-85
2021/04/20 10:40:31;;;;;;;7.95;7.15;;;29.40;99.90;;;;;;5022988;28;20068;-88
2021/04/20 10:43:07;;;;;;;9.48;7.60;;;31.20;99.90;;;;;;5027032;28;20041;-87
2021/04/20 10:45:34;;;;;;;8.95;7.97;;;30.90;99.90;;;;;;5008633;28;20044;-86
2021/04/20 10:48:01;;;;;;;10.60;9.00;;;31.60;99.90;;;;;;5017320;28;20024;-84
2021/04/20 10:50:30;;;;;;;10.48;8.63;;;31.90;99.90;;;;;;4998416;28;20022;-82
2021/04/20 10:53:20;;;;;;;9.63;8.63;;;32.40;99.90;;;;;;5016067;28;20052;-83
2021/04/20 10:56:12;;;;;;;9.48;8.55;;;32.50;99.90;;;;;;5025989;28;20499;-81
2021/04/20 10:58:45;;;;;;;10.98;9.48;;;33.10;99.90;;;;;;5025238;28;20036;-81
2021/04/20 11:01:22;;;;;;;11.60;9.23;;;34.20;99.90;;;;;;5024835;28;20485;-81
2021/04/20 11:03:50;;;;;;;8.93;8.02;;;33.70;99.90;;;;;;5022232;28;20026;-82
2021/04/20 11:06:53;;;;;;;10.90;8.50;;;32.70;99.90;;;;;;5024959;28;20041;-81
2021/04/20 11:09:28;;;;;;;9.20;8.20;;;32.10;99.90;;;;;;5014282;28;20030;-82
2021/04/20 11:11:53;;;;;;;10.60;8.15;;;31.80;99.90;;;;;;5027690;28;20021;-81
2021/04/20 11:14:37;;;;;;;8.43;7.65;;;32.90;99.90;;;;;;5027855;28;20040;-82
2021/04/20 11:17:03;;;;;;;8.80;7.80;;;33.50;99.90;;;;;;5016193;28;20623;-86
2021/04/20 11:19:32;;;;;;;9.35;8.45;;;32.50;99.90;;;;;;5011468;28;20065;-83
2021/04/20 11:22:00;;;;;;;8.63;7.63;;;32.90;99.90;;;;;;5034812;28;20045;-83
2021/04/20 11:24:28;;;;;;;7.50;6.80;;;34.00;99.90;;;;;;5029890;28;20041;-84
2021/04/20 11:27:04;;;;;;;8.30;7.57;;;34.70;99.90;;;;;;5028589;28;20521;-82
2021/04/20 11:29:41;;;;;;;8.25;7.45;;;34.40;99.90;;;;;;5027647;28;20061;-83
2021/04/20 11:32:08;;;;;;;8.40;7.50;;;35.70;99.90;;;;;;5026024;28;20124;-83
2021/04/20 11:34:34;;;;;;;8.50;7.80;;;34.90;99.90;;;;;;5022196;28;20548;-83
2021/04/20 11:37:10;;;;;;;8.35;7.45;;;34.60;99.90;;;;;;5030601;28;20032;-83
2021/04/20 11:39:37;;;;;;;8.00;6.97;;;35.20;99.90;;;;;;5024416;28;20031;-83
2021/04/20 11:42:10;;;;;;;13.30;11.77;;;35.40;99.90;;;;;;5026605;28;20017;-83
2021/04/20 11:44:38;;;;;;;9.02;8.13;;;35.00;99.90;;;;;;5027927;28;20490;-82
2021/04/20 11:47:09;;;;;;;8.65;7.68;;;34.90;99.90;;;;;;5029127;28;20030;-87
2021/04/20 11:49:36;;;;;;;8.07;7.38;;;33.90;99.90;;;;;;5028474;28;20025;-82
2021/04/20 11:52:04;;;;;;;9.00;8.10;;;33.90;99.90;;;;;;5034327;28;20025;-83
2021/04/20 11:54:34;;;;;;;8.43;7.68;;;34.30;99.90;;;;;;5029257;28;20508;-83
2021/04/20 11:57:01;;;;;;;8.23;7.47;;;33.70;99.90;;;;;;5018075;28;20030;-83
2021/04/20 11:59:30;;;;;;;8.07;7.40;;;33.60;99.90;;;;;;5017372;28;20190;-83
2021/04/20 12:01:56;;;;;;;7.78;7.00;;;34.40;99.90;;;;;;5018978;28;20030;-83
2021/04/20 12:04:28;;;;;;;8.30;6.60;;;35.10;99.90;;;;;;5020395;28;20075;-83
2021/04/20 12:06:56;;;;;;;7.68;7.00;;;34.80;99.90;;;;;;5021471;28;20037;-83
2021/04/20 12:09:38;;;;;;;7.53;6.50;;;33.80;99.90;;;;;;5017683;28;20513;-83
2021/04/20 12:12:04;;;;;;;8.32;6.57;;;34.40;99.90;;;;;;5030890;28;20517;-83
2021/04/20 12:14:35;;;;;;;8.73;7.78;;;33.40;99.90;;;;;;5016918;28;20029;-83
2021/04/20 12:17:01;;;;;;;8.65;7.55;;;32.90;99.90;;;;;;5018667;28;20030;-83
2021/04/20 12:19:29;;;;;;;8.20;7.50;;;33.10;99.90;;;;;;5019519;28;20033;-83
2021/04/20 12:21:56;;;;;;;6.68;6.10;;;33.20;99.90;;;;;;5020260;28;20431;-83
2021/04/20 12:24:24;;;;;;;7.10;6.40;;;32.10;99.90;;;;;;5019011;28;20553;-82
2021/04/20 12:26:56;;;;;;;8.85;7.80;;;32.90;99.90;;;;;;5015539;28;20030;-83
2021/04/20 12:29:27;;;;;;;7.35;6.63;;;34.00;99.90;;;;;;5033840;28;20112;-83
2021/04/20 12:31:53;;;;;;;7.68;6.97;;;35.70;99.90;;;;;;5029211;28;20030;-83
2021/04/20 12:34:29;;;;;;;15.30;7.22;;;35.30;99.90;;;;;;5021493;28;20026;-83
2021/04/20 12:37:01;;;;;;;7.93;6.65;;;35.20;99.90;;;;;;5021328;28;20519;-83
2021/04/20 12:39:42;;;;;;;8.82;6.50;;;35.30;99.90;;;;;;5037764;28;20032;-83
2021/04/20 12:42:15;;;;;;;6.78;6.28;;;33.70;99.90;;;;;;5028046;28;20026;-83
2021/04/20 12:44:47;;;;;;;6.90;6.30;;;34.10;99.90;;;;;;5030811;28;20029;-83
2021/04/20 12:47:15;;;;;;;6.45;5.95;;;34.60;99.90;;;;;;5029861;28;20057;-83
2021/04/20 12:49:46;;;;;;;6.15;5.65;;;35.80;99.90;;;;;;5028593;28;20036;-83
2021/04/20 12:52:17;;;;;;;6.22;5.63;;;35.60;99.90;;;;;;5008405;28;20442;-83
2021/04/20 12:54:45;;;;;;;6.00;5.50;;;35.00;99.90;;;;;;5027034;28;20112;-83
2021/04/20 12:57:16;;;;;;;6.22;5.70;;;34.10;99.90;;;;;;5031060;28;20052;-83
2021/04/20 13:00:05;;;;;;;6.70;6.10;;;33.70;99.90;;;;;;5030787;28;20030;-83
2021/04/20 13:02:31;;;;;;;5.95;5.45;;;33.20;99.90;;;;;;5029637;28;20044;-83
2021/04/20 13:05:02;;;;;;;6.10;5.50;;;33.10;99.90;;;;;;5029229;28;20022;-83
2021/04/20 13:07:30;;;;;;;5.05;4.53;;;32.70;99.90;;;;;;5042150;28;20060;-83